sensor_id;sensor_type;location;lat;lon;timestamp;temperature;humidity
9482;DHT22;4779;48.062;11.672;2023-10-31T00:00:36;10.80;99.90
9482;DHT22;4779;48.062;11.672;2023-10-31T00:03:03;10.80;99.90
9482;DHT22;4779;48.062;11.672;2023-10-31T00:05:30;10.70;99.90
9482;DHT22;4779;48.062;11.672;2023-10-31T00:07:57;10.60;99.90
9482;DHT22;4779;48.062;11.672;2023-10-31T00:10:24;10.50;99.90
9482;DHT22;4779;48.062;11.672;2023-10-31T00:12:51;10.40;99.90
9482;DHT22;4779;48.062;11.672;2023-10-31T00:15:18;10.40;99.90
9482;DHT22;4779;48.062;11.672;2023-10-31T00:17:46;10.30;99.90
9482;DHT22;4779;48.062;11.672;2023-10-31T00:20:14;10.30;99.90
9482;DHT22;4779;48.062;11.672;2023-10-31T00:22:41;10.30;99.90
9482;DHT22;4779;48.062;11.672;2023-10-31T00:25:08;10.30;99.90
9482;DHT22;4779;48.062;11.672;2023-10-31T00:27:35;10.20;99.90
9482;DHT22;4779;48.062;11.672;2023-10-31T00:30:02;10.20;99.90
9482;DHT22;4779;48.062;11.672;2023-10-31T00:32:30;10.20;99.90
9482;DHT22;4779;48.062;11.672;2023-10-31T00:34:58;10.20;99.90
9482;DHT22;4779;48.062;11.672;2023-10-31T00:37:25;10.20;99.90
9482;DHT22;4779;48.062;11.672;2023-10-31T00:39:52;10.20;99.90
9482;DHT22;4779;48.062;11.672;2023-10-31T00:42:19;10.30;99.90
9482;DHT22;4779;48.062;11.672;2023-10-31T00:44:46;10.30;99.90
9482;DHT22;4779;48.062;11.672;2023-10-31T00:47:13;10.30;99.90
9482;DHT22;4779;48.062;11.672;2023-10-31T00:49:41;10.20;99.90
9482;DHT22;4779;48.062;11.672;2023-10-31T00:52:09;10.20;99.90
9482;DHT22;4779;48.062;11.672;2023-10-31T00:54:36;10.20;99.90
9482;DHT22;4779;48.062;11.672;2023-10-31T00:57:03;10.10;99.90
9482;DHT22;4779;48.062;11.672;2023-10-31T00:59:30;10.10;99.90
9482;DHT22;4779;48.062;11.672;2023-10-31T01:01:57;10.10;99.90
9482;DHT22;4779;48.062;11.672;2023-10-31T01:04:24;10.10;99.90
9482;DHT22;4779;48.062;11.672;2023-10-31T01:06:51;10.20;99.90
9482;DHT22;4779;48.062;11.672;2023-10-31T01:09:20;10.10;99.90
9482;DHT22;4779;48.062;11.672;2023-10-31T01:11:47;10.10;99.90
9482;DHT22;4779;48.062;11.672;2023-10-31T01:14:14;10.00;99.90
9482;DHT22;4779;48.062;11.672;2023-10-31T01:16:41;10.10;99.90
9482;DHT22;4779;48.062;11.672;2023-10-31T01:19:08;10.10;99.90
9482;DHT22;4779;48.062;11.672;2023-10-31T01:21:36;10.00;99.90
9482;DHT22;4779;48.062;11.672;2023-10-31T01:24:03;10.00;99.90
9482;DHT22;4779;48.062;11.672;2023-10-31T01:26:32;10.00;99.90
9482;DHT22;4779;48.062;11.672;2023-10-31T01:28:59;10.00;99.90
9482;DHT22;4779;48.062;11.672;2023-10-31T01:31:26;9.90;99.90
9482;DHT22;4779;48.062;11.672;2023-10-31T01:33:53;10.00;99.90
9482;DHT22;4779;48.062;11.672;2023-10-31T01:36:24;9.90;99.90
9482;DHT22;4779;48.062;11.672;2023-10-31T01:38:52;10.00;99.90
9482;DHT22;4779;48.062;11.672;2023-10-31T01:41:19;10.00;99.90
9482;DHT22;4779;48.062;11.672;2023-10-31T01:43:47;9.90;99.90
9482;DHT22;4779;48.062;11.672;2023-10-31T01:46:14;9.90;99.90
9482;DHT22;4779;48.062;11.672;2023-10-31T01:48:42;9.90;99.90
9482;DHT22;4779;48.062;11.672;2023-10-31T01:51:09;9.90;99.90
9482;DHT22;4779;48.062;11.672;2023-10-31T01:53:37;9.80;99.90
9482;DHT22;4779;48.062;11.672;2023-10-31T01:56:05;9.80;99.90
9482;DHT22;4779;48.062;11.672;2023-10-31T01:58:34;9.80;99.90
9482;DHT22;4779;48.062;11.672;2023-10-31T02:01:04;9.80;99.90
9482;DHT22;4779;48.062;11.672;2023-10-31T02:03:32;9.80;99.90
9482;DHT22;4779;48.062;11.672;2023-10-31T02:05:59;9.70;99.90
9482;DHT22;4779;48.062;11.672;2023-10-31T02:08:27;9.70;99.90
9482;DHT22;4779;48.062;11.672;2023-10-31T02:10:54;9.80;99.90
9482;DHT22;4779;48.062;11.672;2023-10-31T02:13:21;9.70;99.90
9482;DHT22;4779;48.062;11.672;2023-10-31T02:15:48;9.70;99.90
9482;DHT22;4779;48.062;11.672;2023-10-31T02:18:16;9.60;99.90
9482;DHT22;4779;48.062;11.672;2023-10-31T02:20:44;9.60;99.90
9482;DHT22;4779;48.062;11.672;2023-10-31T02:23:12;9.60;99.90
9482;DHT22;4779;48.062;11.672;2023-10-31T02:25:41;9.60;99.90
9482;DHT22;4779;48.062;11.672;2023-10-31T02:28:08;9.60;99.90
9482;DHT22;4779;48.062;11.672;2023-10-31T02:30:35;9.50;99.90
9482;DHT22;4779;48.062;11.672;2023-10-31T02:33:03;9.40;99.90
9482;DHT22;4779;48.062;11.672;2023-10-31T02:35:30;9.50;99.90
9482;DHT22;4779;48.062;11.672;2023-10-31T02:37:57;9.60;99.90
9482;DHT22;4779;48.062;11.672;2023-10-31T02:40:25;9.60;99.90
9482;DHT22;4779;48.062;11.672;2023-10-31T02:42:52;9.60;99.90
9482;DHT22;4779;48.062;11.672;2023-10-31T02:45:19;9.50;99.90
9482;DHT22;4779;48.062;11.672;2023-10-31T02:47:46;9.50;99.90
9482;DHT22;4779;48.062;11.672;2023-10-31T02:50:13;9.50;99.90
9482;DHT22;4779;48.062;11.672;2023-10-31T02:52:41;9.50;99.90
9482;DHT22;4779;48.062;11.672;2023-10-31T02:55:11;9.50;99.90
9482;DHT22;4779;48.062;11.672;2023-10-31T02:57:39;9.60;99.90
9482;DHT22;4779;48.062;11.672;2023-10-31T03:00:07;9.60;99.90
9482;DHT22;4779;48.062;11.672;2023-10-31T03:02:35;9.70;99.90
9482;DHT22;4779;48.062;11.672;2023-10-31T03:05:02;9.60;99.90
9482;DHT22;4779;48.062;11.672;2023-10-31T03:07:29;9.60;99.90
9482;DHT22;4779;48.062;11.672;2023-10-31T03:09:56;9.60;99.90
9482;DHT22;4779;48.062;11.672;2023-10-31T03:12:23;9.60;99.90
9482;DHT22;4779;48.062;11.672;2023-10-31T03:14:52;9.60;99.90
9482;DHT22;4779;48.062;11.672;2023-10-31T03:17:19;9.60;99.90
9482;DHT22;4779;48.062;11.672;2023-10-31T03:19:46;9.60;99.90
9482;DHT22;4779;48.062;11.672;2023-10-31T03:22:13;9.50;99.90
9482;DHT22;4779;48.062;11.672;2023-10-31T03:24:40;9.50;99.90
9482;DHT22;4779;48.062;11.672;2023-10-31T03:27:07;9.60;99.90
9482;DHT22;4779;48.062;11.672;2023-10-31T03:29:34;9.60;99.90
9482;DHT22;4779;48.062;11.672;2023-10-31T03:32:03;9.60;99.90
9482;DHT22;4779;48.062;11.672;2023-10-31T03:34:31;9.60;99.90
9482;DHT22;4779;48.062;11.672;2023-10-31T03:36:58;9.60;99.90
9482;DHT22;4779;48.062;11.672;2023-10-31T03:39:25;9.60;99.90
9482;DHT22;4779;48.062;11.672;2023-10-31T03:41:52;9.70;99.90
9482;DHT22;4779;48.062;11.672;2023-10-31T03:44:19;9.70;99.90
9482;DHT22;4779;48.062;11.672;2023-10-31T03:46:46;9.60;99.90
9482;DHT22;4779;48.062;11.672;2023-10-31T03:49:15;9.60;99.90
9482;DHT22;4779;48.062;11.672;2023-10-31T03:51:42;9.60;99.90
9482;DHT22;4779;48.062;11.672;2023-10-31T03:54:09;9.50;99.90
9482;DHT22;4779;48.062;11.672;2023-10-31T03:56:39;9.50;99.90
9482;DHT22;4779;48.062;11.672;2023-10-31T03:59:07;9.50;99.90
9482;DHT22;4779;48.062;11.672;2023-10-31T04:01:34;9.50;99.90
9482;DHT22;4779;48.062;11.672;2023-10-31T04:04:01;9.50;99.90
9482;DHT22;4779;48.062;11.672;2023-10-31T04:06:30;9.50;99.90
9482;DHT22;4779;48.062;11.672;2023-10-31T04:08:57;9.50;99.90
9482;DHT22;4779;48.062;11.672;2023-10-31T04:11:24;9.60;99.90
9482;DHT22;4779;48.062;11.672;2023-10-31T04:13:51;9.60;99.90
9482;DHT22;4779;48.062;11.672;2023-10-31T04:16:18;9.50;99.90
9482;DHT22;4779;48.062;11.672;2023-10-31T04:18:45;9.50;99.90
9482;DHT22;4779;48.062;11.672;2023-10-31T04:21:12;9.50;99.90
9482;DHT22;4779;48.062;11.672;2023-10-31T04:23:40;9.50;99.90
9482;DHT22;4779;48.062;11.672;2023-10-31T04:26:07;9.50;99.90
9482;DHT22;4779;48.062;11.672;2023-10-31T04:28:35;9.40;99.90
9482;DHT22;4779;48.062;11.672;2023-10-31T04:31:02;9.40;99.90
9482;DHT22;4779;48.062;11.672;2023-10-31T04:33:29;9.50;99.90
9482;DHT22;4779;48.062;11.672;2023-10-31T04:35:56;9.50;99.90
9482;DHT22;4779;48.062;11.672;2023-10-31T04:38:23;9.40;99.90
9482;DHT22;4779;48.062;11.672;2023-10-31T04:40:51;9.40;99.90
9482;DHT22;4779;48.062;11.672;2023-10-31T04:43:18;9.40;99.90
9482;DHT22;4779;48.062;11.672;2023-10-31T04:45:45;9.40;99.90
9482;DHT22;4779;48.062;11.672;2023-10-31T04:48:13;9.40;99.90
9482;DHT22;4779;48.062;11.672;2023-10-31T04:50:40;9.40;99.90
9482;DHT22;4779;48.062;11.672;2023-10-31T04:53:07;9.40;99.90
9482;DHT22;4779;48.062;11.672;2023-10-31T04:55:34;9.40;99.90
9482;DHT22;4779;48.062;11.672;2023-10-31T04:58:03;9.40;99.90
9482;DHT22;4779;48.062;11.672;2023-10-31T05:00:30;9.30;99.90
9482;DHT22;4779;48.062;11.672;2023-10-31T05:02:57;9.40;99.90
9482;DHT22;4779;48.062;11.672;2023-10-31T05:05:25;9.30;99.90
9482;DHT22;4779;48.062;11.672;2023-10-31T05:07:52;9.30;99.90
9482;DHT22;4779;48.062;11.672;2023-10-31T05:10:19;9.30;99.90
9482;DHT22;4779;48.062;11.672;2023-10-31T05:12:46;9.30;99.90
9482;DHT22;4779;48.062;11.672;2023-10-31T05:15:15;9.20;99.90
9482;DHT22;4779;48.062;11.672;2023-10-31T05:17:42;9.20;99.90
9482;DHT22;4779;48.062;11.672;2023-10-31T05:20:10;9.20;99.90
9482;DHT22;4779;48.062;11.672;2023-10-31T05:22:37;9.20;99.90
9482;DHT22;4779;48.062;11.672;2023-10-31T05:25:04;9.20;99.90
9482;DHT22;4779;48.062;11.672;2023-10-31T05:27:32;9.20;99.90
9482;DHT22;4779;48.062;11.672;2023-10-31T05:29:59;9.20;99.90
9482;DHT22;4779;48.062;11.672;2023-10-31T05:32:27;9.20;99.90
9482;DHT22;4779;48.062;11.672;2023-10-31T05:34:54;9.20;99.90
9482;DHT22;4779;48.062;11.672;2023-10-31T05:37:21;9.20;99.90
9482;DHT22;4779;48.062;11.672;2023-10-31T05:39:48;9.20;99.90
9482;DHT22;4779;48.062;11.672;2023-10-31T05:42:16;9.20;99.90
9482;DHT22;4779;48.062;11.672;2023-10-31T05:44:44;9.30;99.90
9482;DHT22;4779;48.062;11.672;2023-10-31T05:47:11;9.30;99.90
9482;DHT22;4779;48.062;11.672;2023-10-31T05:49:42;9.30;99.90
9482;DHT22;4779;48.062;11.672;2023-10-31T05:52:09;9.20;99.90
9482;DHT22;4779;48.062;11.672;2023-10-31T05:54:36;9.20;99.90
9482;DHT22;4779;48.062;11.672;2023-10-31T05:57:04;9.20;99.90
9482;DHT22;4779;48.062;11.672;2023-10-31T05:59:31;9.20;99.90
9482;DHT22;4779;48.062;11.672;2023-10-31T06:01:58;9.20;99.90
9482;DHT22;4779;48.062;11.672;2023-10-31T06:04:25;9.20;99.90
9482;DHT22;4779;48.062;11.672;2023-10-31T06:06:53;9.20;99.90
9482;DHT22;4779;48.062;11.672;2023-10-31T06:09:20;9.20;99.90
9482;DHT22;4779;48.062;11.672;2023-10-31T06:11:47;9.20;99.90
9482;DHT22;4779;48.062;11.672;2023-10-31T06:14:14;9.20;99.90
9482;DHT22;4779;48.062;11.672;2023-10-31T06:16:42;9.20;99.90
9482;DHT22;4779;48.062;11.672;2023-10-31T06:19:09;9.20;99.90
9482;DHT22;4779;48.062;11.672;2023-10-31T06:21:36;9.20;99.90
9482;DHT22;4779;48.062;11.672;2023-10-31T06:24:06;9.30;99.90
9482;DHT22;4779;48.062;11.672;2023-10-31T06:26:33;9.20;99.90
9482;DHT22;4779;48.062;11.672;2023-10-31T06:29:00;9.30;99.90
9482;DHT22;4779;48.062;11.672;2023-10-31T06:31:27;9.30;99.90
9482;DHT22;4779;48.062;11.672;2023-10-31T06:33:54;9.30;99.90
9482;DHT22;4779;48.062;11.672;2023-10-31T06:36:21;9.40;99.90
9482;DHT22;4779;48.062;11.672;2023-10-31T06:38:48;9.30;99.90
9482;DHT22;4779;48.062;11.672;2023-10-31T06:41:17;9.30;99.90
9482;DHT22;4779;48.062;11.672;2023-10-31T06:43:44;9.30;99.90
9482;DHT22;4779;48.062;11.672;2023-10-31T06:46:11;9.30;99.90
9482;DHT22;4779;48.062;11.672;2023-10-31T06:48:40;9.30;99.90
9482;DHT22;4779;48.062;11.672;2023-10-31T06:51:07;9.30;99.90
9482;DHT22;4779;48.062;11.672;2023-10-31T06:53:34;9.20;99.90
9482;DHT22;4779;48.062;11.672;2023-10-31T06:56:01;9.20;99.90
9482;DHT22;4779;48.062;11.672;2023-10-31T06:58:29;9.10;99.90
9482;DHT22;4779;48.062;11.672;2023-10-31T07:00:56;9.20;99.90
9482;DHT22;4779;48.062;11.672;2023-10-31T07:03:23;9.20;99.90
9482;DHT22;4779;48.062;11.672;2023-10-31T07:05:51;9.20;99.90
9482;DHT22;4779;48.062;11.672;2023-10-31T07:08:18;9.20;99.90
9482;DHT22;4779;48.062;11.672;2023-10-31T07:10:45;9.20;99.90
9482;DHT22;4779;48.062;11.672;2023-10-31T07:13:12;9.20;99.90
9482;DHT22;4779;48.062;11.672;2023-10-31T07:15:40;9.30;99.90
9482;DHT22;4779;48.062;11.672;2023-10-31T07:18:07;9.30;99.90
9482;DHT22;4779;48.062;11.672;2023-10-31T07:20:34;9.20;99.90
9482;DHT22;4779;48.062;11.672;2023-10-31T07:23:02;9.20;99.90
9482;DHT22;4779;48.062;11.672;2023-10-31T07:25:28;9.30;99.90
9482;DHT22;4779;48.062;11.672;2023-10-31T07:27:55;9.30;99.90
9482;DHT22;4779;48.062;11.672;2023-10-31T07:30:22;9.30;99.90
9482;DHT22;4779;48.062;11.672;2023-10-31T07:32:51;9.40;99.90
9482;DHT22;4779;48.062;11.672;2023-10-31T07:35:18;9.40;99.90
9482;DHT22;4779;48.062;11.672;2023-10-31T07:37:46;9.50;99.90
9482;DHT22;4779;48.062;11.672;2023-10-31T07:40:13;9.50;99.90
9482;DHT22;4779;48.062;11.672;2023-10-31T07:42:40;9.50;99.90
9482;DHT22;4779;48.062;11.672;2023-10-31T07:45:07;9.50;99.90
9482;DHT22;4779;48.062;11.672;2023-10-31T07:47:36;9.60;99.90
9482;DHT22;4779;48.062;11.672;2023-10-31T07:50:05;9.60;99.90
9482;DHT22;4779;48.062;11.672;2023-10-31T07:52:32;9.50;99.90
9482;DHT22;4779;48.062;11.672;2023-10-31T07:54:59;9.50;99.90
9482;DHT22;4779;48.062;11.672;2023-10-31T07:57:26;9.50;99.90
9482;DHT22;4779;48.062;11.672;2023-10-31T07:59:53;9.60;99.90
9482;DHT22;4779;48.062;11.672;2023-10-31T08:02:20;9.60;99.90
9482;DHT22;4779;48.062;11.672;2023-10-31T08:04:47;9.60;99.90
9482;DHT22;4779;48.062;11.672;2023-10-31T08:07:15;9.60;99.90
9482;DHT22;4779;48.062;11.672;2023-10-31T08:09:42;9.60;99.90
9482;DHT22;4779;48.062;11.672;2023-10-31T08:12:09;9.60;99.90
9482;DHT22;4779;48.062;11.672;2023-10-31T08:14:36;9.60;99.90
9482;DHT22;4779;48.062;11.672;2023-10-31T08:17:03;9.60;99.90
9482;DHT22;4779;48.062;11.672;2023-10-31T08:19:30;9.50;99.90
9482;DHT22;4779;48.062;11.672;2023-10-31T08:21:57;9.50;99.90
9482;DHT22;4779;48.062;11.672;2023-10-31T08:24:26;9.50;99.90
9482;DHT22;4779;48.062;11.672;2023-10-31T08:26:53;9.50;99.90
9482;DHT22;4779;48.062;11.672;2023-10-31T08:29:20;9.50;99.90
9482;DHT22;4779;48.062;11.672;2023-10-31T08:31:47;9.50;99.90
9482;DHT22;4779;48.062;11.672;2023-10-31T08:34:14;9.50;99.90
9482;DHT22;4779;48.062;11.672;2023-10-31T08:36:41;9.50;99.90
9482;DHT22;4779;48.062;11.672;2023-10-31T08:39:08;9.50;99.90
9482;DHT22;4779;48.062;11.672;2023-10-31T08:41:36;9.50;99.90
9482;DHT22;4779;48.062;11.672;2023-10-31T08:44:05;9.50;99.90
9482;DHT22;4779;48.062;11.672;2023-10-31T08:46:33;9.50;99.90
9482;DHT22;4779;48.062;11.672;2023-10-31T08:49:00;9.50;99.90
9482;DHT22;4779;48.062;11.672;2023-10-31T08:51:27;9.50;99.90
9482;DHT22;4779;48.062;11.672;2023-10-31T08:53:54;9.60;99.90
9482;DHT22;4779;48.062;11.672;2023-10-31T08:56:20;9.60;99.90
9482;DHT22;4779;48.062;11.672;2023-10-31T08:58:48;9.60;99.90
9482;DHT22;4779;48.062;11.672;2023-10-31T09:01:15;9.60;99.90
9482;DHT22;4779;48.062;11.672;2023-10-31T09:03:42;9.50;99.90
9482;DHT22;4779;48.062;11.672;2023-10-31T09:06:10;9.60;99.90
9482;DHT22;4779;48.062;11.672;2023-10-31T09:08:37;9.60;99.90
9482;DHT22;4779;48.062;11.672;2023-10-31T09:11:04;9.70;99.90
9482;DHT22;4779;48.062;11.672;2023-10-31T09:13:31;9.70;99.90
9482;DHT22;4779;48.062;11.672;2023-10-31T09:16:00;9.70;99.90
9482;DHT22;4779;48.062;11.672;2023-10-31T09:18:27;9.70;99.90
9482;DHT22;4779;48.062;11.672;2023-10-31T09:20:54;9.70;99.90
9482;DHT22;4779;48.062;11.672;2023-10-31T09:23:21;9.70;99.90
9482;DHT22;4779;48.062;11.672;2023-10-31T09:25:48;9.70;99.90
9482;DHT22;4779;48.062;11.672;2023-10-31T09:28:15;9.70;99.90
9482;DHT22;4779;48.062;11.672;2023-10-31T09:30:42;9.70;99.90
9482;DHT22;4779;48.062;11.672;2023-10-31T09:33:10;9.70;99.90
9482;DHT22;4779;48.062;11.672;2023-10-31T09:35:38;9.70;99.90
9482;DHT22;4779;48.062;11.672;2023-10-31T09:38:05;9.70;99.90
9482;DHT22;4779;48.062;11.672;2023-10-31T09:40:32;9.70;99.90
9482;DHT22;4779;48.062;11.672;2023-10-31T09:42:59;9.70;99.90
9482;DHT22;4779;48.062;11.672;2023-10-31T09:45:26;9.80;99.90
9482;DHT22;4779;48.062;11.672;2023-10-31T09:47:54;9.80;99.90
9482;DHT22;4779;48.062;11.672;2023-10-31T09:50:23;9.80;99.90
9482;DHT22;4779;48.062;11.672;2023-10-31T09:52:50;9.90;99.90
9482;DHT22;4779;48.062;11.672;2023-10-31T09:55:18;9.90;99.90
9482;DHT22;4779;48.062;11.672;2023-10-31T09:57:46;10.00;99.90
9482;DHT22;4779;48.062;11.672;2023-10-31T10:00:14;10.00;99.90
9482;DHT22;4779;48.062;11.672;2023-10-31T10:02:41;10.10;99.90
9482;DHT22;4779;48.062;11.672;2023-10-31T10:05:13;10.10;99.90
9482;DHT22;4779;48.062;11.672;2023-10-31T10:07:42;10.00;99.90
9482;DHT22;4779;48.062;11.672;2023-10-31T10:10:11;10.10;99.90
9482;DHT22;4779;48.062;11.672;2023-10-31T10:12:38;10.00;99.90
9482;DHT22;4779;48.062;11.672;2023-10-31T10:15:08;10.10;99.90
9482;DHT22;4779;48.062;11.672;2023-10-31T10:17:35;10.10;99.90
9482;DHT22;4779;48.062;11.672;2023-10-31T10:20:06;10.10;99.90
9482;DHT22;4779;48.062;11.672;2023-10-31T10:22:37;10.20;99.90
9482;DHT22;4779;48.062;11.672;2023-10-31T10:25:07;10.10;99.90
9482;DHT22;4779;48.062;11.672;2023-10-31T10:27:34;10.10;99.90
9482;DHT22;4779;48.062;11.672;2023-10-31T10:30:01;10.10;99.90
9482;DHT22;4779;48.062;11.672;2023-10-31T10:32:29;10.10;99.90
9482;DHT22;4779;48.062;11.672;2023-10-31T10:34:56;10.10;99.90
9482;DHT22;4779;48.062;11.672;2023-10-31T10:37:23;10.20;99.90
9482;DHT22;4779;48.062;11.672;2023-10-31T10:39:52;10.20;99.90
9482;DHT22;4779;48.062;11.672;2023-10-31T10:42:30;10.20;99.90
9482;DHT22;4779;48.062;11.672;2023-10-31T10:45:01;10.20;99.90
9482;DHT22;4779;48.062;11.672;2023-10-31T10:47:29;10.30;99.90
9482;DHT22;4779;48.062;11.672;2023-10-31T10:49:59;10.30;99.90
9482;DHT22;4779;48.062;11.672;2023-10-31T10:52:29;10.30;99.90
9482;DHT22;4779;48.062;11.672;2023-10-31T10:55:03;10.30;99.90
9482;DHT22;4779;48.062;11.672;2023-10-31T10:57:37;10.30;99.90
9482;DHT22;4779;48.062;11.672;2023-10-31T11:00:06;10.30;99.90
9482;DHT22;4779;48.062;11.672;2023-10-31T11:02:36;10.40;99.90
9482;DHT22;4779;48.062;11.672;2023-10-31T11:05:05;10.40;99.90
9482;DHT22;4779;48.062;11.672;2023-10-31T11:07:34;10.50;99.90
9482;DHT22;4779;48.062;11.672;2023-10-31T11:10:02;10.50;99.90
9482;DHT22;4779;48.062;11.672;2023-10-31T11:12:30;10.50;99.90
9482;DHT22;4779;48.062;11.672;2023-10-31T11:14:59;10.60;99.90
9482;DHT22;4779;48.062;11.672;2023-10-31T11:17:30;10.60;99.90
9482;DHT22;4779;48.062;11.672;2023-10-31T11:19:58;10.70;99.90
9482;DHT22;4779;48.062;11.672;2023-10-31T11:22:25;10.70;99.90
9482;DHT22;4779;48.062;11.672;2023-10-31T11:24:52;10.70;99.90
9482;DHT22;4779;48.062;11.672;2023-10-31T11:27:19;10.80;99.90
9482;DHT22;4779;48.062;11.672;2023-10-31T11:29:47;10.90;99.90
9482;DHT22;4779;48.062;11.672;2023-10-31T11:32:16;10.90;99.90
9482;DHT22;4779;48.062;11.672;2023-10-31T11:34:43;10.90;99.90
9482;DHT22;4779;48.062;11.672;2023-10-31T11:37:24;10.90;99.90
9482;DHT22;4779;48.062;11.672;2023-10-31T11:40:17;10.90;99.90
9482;DHT22;4779;48.062;11.672;2023-10-31T11:42:47;11.00;99.90
9482;DHT22;4779;48.062;11.672;2023-10-31T11:45:25;11.00;99.90
9482;DHT22;4779;48.062;11.672;2023-10-31T11:47:55;11.10;99.90
9482;DHT22;4779;48.062;11.672;2023-10-31T11:50:22;11.10;99.90
9482;DHT22;4779;48.062;11.672;2023-10-31T11:53:04;11.10;99.90
9482;DHT22;4779;48.062;11.672;2023-10-31T11:55:32;11.10;99.90
9482;DHT22;4779;48.062;11.672;2023-10-31T11:58:15;11.10;99.90
9482;DHT22;4779;48.062;11.672;2023-10-31T12:00:43;11.20;99.90
9482;DHT22;4779;48.062;11.672;2023-10-31T12:03:14;11.20;99.90
9482;DHT22;4779;48.062;11.672;2023-10-31T12:05:51;11.20;99.90
9482;DHT22;4779;48.062;11.672;2023-10-31T12:08:25;11.20;99.90
9482;DHT22;4779;48.062;11.672;2023-10-31T12:10:52;11.20;99.90
9482;DHT22;4779;48.062;11.672;2023-10-31T12:13:19;11.20;99.90
9482;DHT22;4779;48.062;11.672;2023-10-31T12:15:51;11.20;99.90
9482;DHT22;4779;48.062;11.672;2023-10-31T12:18:20;11.20;99.90
9482;DHT22;4779;48.062;11.672;2023-10-31T12:20:48;11.20;99.90
9482;DHT22;4779;48.062;11.672;2023-10-31T12:23:15;11.20;99.90
9482;DHT22;4779;48.062;11.672;2023-10-31T12:25:47;11.30;99.90
9482;DHT22;4779;48.062;11.672;2023-10-31T12:28:17;11.50;99.90
9482;DHT22;4779;48.062;11.672;2023-10-31T12:30:45;11.50;99.90
9482;DHT22;4779;48.062;11.672;2023-10-31T12:33:13;11.60;99.90
9482;DHT22;4779;48.062;11.672;2023-10-31T12:35:42;11.70;99.90
9482;DHT22;4779;48.062;11.672;2023-10-31T12:38:10;11.80;99.90
9482;DHT22;4779;48.062;11.672;2023-10-31T12:40:39;11.80;99.90
9482;DHT22;4779;48.062;11.672;2023-10-31T12:43:07;11.90;99.90
9482;DHT22;4779;48.062;11.672;2023-10-31T12:45:35;11.90;99.90
9482;DHT22;4779;48.062;11.672;2023-10-31T12:48:03;11.90;99.90
9482;DHT22;4779;48.062;11.672;2023-10-31T12:50:31;12.00;99.90
9482;DHT22;4779;48.062;11.672;2023-10-31T12:53:00;12.10;99.90
9482;DHT22;4779;48.062;11.672;2023-10-31T12:55:29;12.10;99.90
9482;DHT22;4779;48.062;11.672;2023-10-31T12:57:57;12.10;99.90
9482;DHT22;4779;48.062;11.672;2023-10-31T13:00:31;12.10;99.90
9482;DHT22;4779;48.062;11.672;2023-10-31T13:03:03;12.00;99.90
9482;DHT22;4779;48.062;11.672;2023-10-31T13:05:30;11.90;99.90
9482;DHT22;4779;48.062;11.672;2023-10-31T13:07:59;11.90;99.90
9482;DHT22;4779;48.062;11.672;2023-10-31T13:10:30;11.70;99.90
9482;DHT22;4779;48.062;11.672;2023-10-31T13:12:58;11.70;99.90
9482;DHT22;4779;48.062;11.672;2023-10-31T13:15:25;11.50;99.90
9482;DHT22;4779;48.062;11.672;2023-10-31T13:17:52;11.30;99.90
9482;DHT22;4779;48.062;11.672;2023-10-31T13:20:20;11.30;99.90
9482;DHT22;4779;48.062;11.672;2023-10-31T13:22:48;11.30;99.90
9482;DHT22;4779;48.062;11.672;2023-10-31T13:25:17;11.30;99.90
9482;DHT22;4779;48.062;11.672;2023-10-31T13:27:44;11.30;99.90
9482;DHT22;4779;48.062;11.672;2023-10-31T13:30:16;11.20;99.90
9482;DHT22;4779;48.062;11.672;2023-10-31T13:32:44;11.10;99.90
9482;DHT22;4779;48.062;11.672;2023-10-31T13:35:11;11.10;99.90
9482;DHT22;4779;48.062;11.672;2023-10-31T13:37:39;11.00;99.90
9482;DHT22;4779;48.062;11.672;2023-10-31T13:40:07;11.00;99.90
9482;DHT22;4779;48.062;11.672;2023-10-31T13:42:36;11.00;99.90
9482;DHT22;4779;48.062;11.672;2023-10-31T13:45:04;11.00;99.90
9482;DHT22;4779;48.062;11.672;2023-10-31T13:47:31;11.10;99.90
9482;DHT22;4779;48.062;11.672;2023-10-31T13:49:58;11.00;99.90
9482;DHT22;4779;48.062;11.672;2023-10-31T13:52:26;11.00;99.90
9482;DHT22;4779;48.062;11.672;2023-10-31T13:54:53;11.10;99.90
9482;DHT22;4779;48.062;11.672;2023-10-31T13:57:20;11.00;99.90
9482;DHT22;4779;48.062;11.672;2023-10-31T13:59:49;11.00;99.90
9482;DHT22;4779;48.062;11.672;2023-10-31T14:02:18;11.00;99.90
9482;DHT22;4779;48.062;11.672;2023-10-31T14:04:47;11.10;99.90
9482;DHT22;4779;48.062;11.672;2023-10-31T14:07:20;11.10;99.90
9482;DHT22;4779;48.062;11.672;2023-10-31T14:09:48;11.00;99.90
9482;DHT22;4779;48.062;11.672;2023-10-31T14:12:15;11.00;99.90
9482;DHT22;4779;48.062;11.672;2023-10-31T14:14:42;11.00;99.90
9482;DHT22;4779;48.062;11.672;2023-10-31T14:17:10;10.90;99.90
9482;DHT22;4779;48.062;11.672;2023-10-31T14:19:39;11.00;99.90
9482;DHT22;4779;48.062;11.672;2023-10-31T14:22:07;10.90;99.90
9482;DHT22;4779;48.062;11.672;2023-10-31T14:24:34;10.90;99.90
9482;DHT22;4779;48.062;11.672;2023-10-31T14:27:01;10.90;99.90
9482;DHT22;4779;48.062;11.672;2023-10-31T14:29:28;10.80;99.90
9482;DHT22;4779;48.062;11.672;2023-10-31T14:31:55;10.70;99.90
9482;DHT22;4779;48.062;11.672;2023-10-31T14:34:24;10.60;99.90
9482;DHT22;4779;48.062;11.672;2023-10-31T14:36:51;10.50;99.90
9482;DHT22;4779;48.062;11.672;2023-10-31T14:39:19;10.50;99.90
9482;DHT22;4779;48.062;11.672;2023-10-31T14:41:46;10.40;99.90
9482;DHT22;4779;48.062;11.672;2023-10-31T14:44:13;10.40;99.90
9482;DHT22;4779;48.062;11.672;2023-10-31T14:46:40;10.40;99.90
9482;DHT22;4779;48.062;11.672;2023-10-31T14:49:07;10.40;99.90
9482;DHT22;4779;48.062;11.672;2023-10-31T14:51:37;10.40;99.90
9482;DHT22;4779;48.062;11.672;2023-10-31T14:54:04;10.40;99.90
9482;DHT22;4779;48.062;11.672;2023-10-31T14:56:31;10.40;99.90
9482;DHT22;4779;48.062;11.672;2023-10-31T14:59:00;10.40;99.90
9482;DHT22;4779;48.062;11.672;2023-10-31T15:01:28;10.40;99.90
9482;DHT22;4779;48.062;11.672;2023-10-31T15:03:55;10.30;99.90
9482;DHT22;4779;48.062;11.672;2023-10-31T15:06:22;10.30;99.90
9482;DHT22;4779;48.062;11.672;2023-10-31T15:08:50;10.30;99.90
9482;DHT22;4779;48.062;11.672;2023-10-31T15:11:17;10.40;99.90
9482;DHT22;4779;48.062;11.672;2023-10-31T15:13:44;10.30;99.90
9482;DHT22;4779;48.062;11.672;2023-10-31T15:16:12;10.30;99.90
9482;DHT22;4779;48.062;11.672;2023-10-31T15:18:39;10.20;99.90
9482;DHT22;4779;48.062;11.672;2023-10-31T15:21:06;10.30;99.90
9482;DHT22;4779;48.062;11.672;2023-10-31T15:23:33;10.40;99.90
9482;DHT22;4779;48.062;11.672;2023-10-31T15:26:03;10.50;99.90
9482;DHT22;4779;48.062;11.672;2023-10-31T15:28:30;10.40;99.90
9482;DHT22;4779;48.062;11.672;2023-10-31T15:30:57;10.40;99.90
9482;DHT22;4779;48.062;11.672;2023-10-31T15:33:24;10.40;99.90
9482;DHT22;4779;48.062;11.672;2023-10-31T15:35:51;10.40;99.90
9482;DHT22;4779;48.062;11.672;2023-10-31T15:38:18;10.30;99.90
9482;DHT22;4779;48.062;11.672;2023-10-31T15:40:46;10.30;99.90
9482;DHT22;4779;48.062;11.672;2023-10-31T15:43:14;10.30;99.90
9482;DHT22;4779;48.062;11.672;2023-10-31T15:45:41;10.30;99.90
9482;DHT22;4779;48.062;11.672;2023-10-31T15:48:08;10.20;99.90
9482;DHT22;4779;48.062;11.672;2023-10-31T15:50:35;10.20;99.90
9482;DHT22;4779;48.062;11.672;2023-10-31T15:53:02;10.20;99.90
9482;DHT22;4779;48.062;11.672;2023-10-31T15:55:29;10.10;99.90
9482;DHT22;4779;48.062;11.672;2023-10-31T15:57:57;10.00;99.90